createdAt,value
2019-03-29T00:02:13.618Z,10.77
2019-03-29T00:04:43.852Z,10.37
2019-03-29T00:07:14.075Z,12.00
2019-03-29T00:09:44.583Z,11.73
2019-03-29T00:12:14.754Z,11.77
2019-03-29T00:14:44.943Z,11.17
2019-03-29T00:17:15.137Z,11.60
2019-03-29T00:19:45.543Z,12.37
2019-03-29T00:22:15.895Z,12.40
2019-03-29T00:24:46.075Z,11.37
2019-03-29T00:27:17.076Z,11.93
2019-03-29T00:29:47.247Z,12.30
2019-03-29T00:32:17.424Z,11.63
2019-03-29T00:34:47.952Z,11.23
2019-03-29T00:37:18.304Z,10.73
2019-03-29T00:39:48.574Z,10.20
2019-03-29T00:42:19.420Z,10.50
2019-03-29T00:44:49.650Z,10.00
2019-03-29T00:47:19.827Z,10.13
2019-03-29T00:49:50.047Z,10.10
2019-03-29T00:52:20.883Z,10.43
2019-03-29T00:54:51.064Z,10.17
2019-03-29T00:57:21.271Z,10.10
2019-03-29T00:59:51.494Z,10.10
2019-03-29T01:02:21.962Z,10.90
2019-03-29T01:04:53.090Z,9.83
2019-03-29T01:07:24.233Z,10.20
2019-03-29T01:09:54.511Z,11.20
2019-03-29T01:12:24.690Z,10.97
2019-03-29T01:14:55.207Z,10.63
2019-03-29T01:17:25.415Z,10.10
2019-03-29T01:19:56.104Z,11.07
2019-03-29T01:22:26.547Z,10.30
2019-03-29T01:24:56.747Z,10.90
2019-03-29T01:27:27.250Z,10.90
2019-03-29T01:29:57.424Z,11.40
2019-03-29T01:32:27.601Z,10.97
2019-03-29T01:34:57.801Z,10.70
2019-03-29T01:37:28.047Z,11.10
2019-03-29T01:39:58.295Z,11.13
2019-03-29T01:42:28.514Z,10.93
2019-03-29T01:44:58.971Z,11.20
2019-03-29T01:47:29.933Z,11.47
2019-03-29T01:50:00.482Z,11.40
2019-03-29T01:52:31.630Z,11.37
2019-03-29T01:55:02.418Z,12.23
2019-03-29T01:57:32.900Z,11.80
2019-03-29T02:00:03.379Z,11.80
2019-03-29T02:02:35.651Z,12.00
2019-03-29T02:05:06.738Z,12.00
2019-03-29T02:07:38.078Z,12.07
2019-03-29T02:10:09.502Z,12.67
2019-03-29T02:12:39.713Z,12.80
2019-03-29T02:15:11.313Z,13.73
2019-03-29T02:17:42.770Z,12.93
2019-03-29T02:20:13.256Z,12.33
2019-03-29T02:22:43.471Z,12.93
2019-03-29T02:25:15.322Z,12.87
2019-03-29T02:27:46.341Z,12.23
2019-03-29T02:30:17.323Z,12.77
2019-03-29T02:32:47.906Z,12.43
2019-03-29T02:35:18.723Z,12.30
2019-03-29T02:37:48.901Z,13.13
2019-03-29T02:40:19.097Z,13.07
2019-03-29T02:42:49.356Z,12.13
2019-03-29T02:45:19.528Z,12.43
2019-03-29T02:47:49.707Z,12.10
2019-03-29T02:50:20.203Z,12.57
2019-03-29T02:52:50.363Z,12.33
2019-03-29T02:55:20.541Z,12.40
2019-03-29T02:57:51.408Z,12.70
2019-03-29T03:00:21.739Z,12.40
2019-03-29T03:02:52.163Z,12.50
2019-03-29T03:05:22.426Z,12.97
2019-03-29T03:07:53.133Z,12.37
2019-03-29T03:10:23.941Z,13.37
2019-03-29T03:12:54.104Z,12.63
2019-03-29T03:15:24.644Z,12.27
2019-03-29T03:17:54.872Z,13.43
2019-03-29T03:20:25.305Z,12.50
2019-03-29T03:22:55.562Z,12.23
2019-03-29T03:25:26.377Z,12.98
2019-03-29T03:27:56.900Z,12.17
2019-03-29T03:30:27.198Z,12.00
2019-03-29T03:32:57.676Z,13.20
2019-03-29T03:35:28.251Z,13.13
2019-03-29T03:37:58.535Z,12.07
2019-03-29T03:40:29.308Z,12.60
2019-03-29T03:42:59.788Z,12.80
2019-03-29T03:45:29.968Z,13.57
2019-03-29T03:48:00.414Z,12.73
2019-03-29T03:50:42.297Z,13.17
2019-03-29T03:53:12.641Z,13.67
2019-03-29T03:55:43.554Z,12.57
2019-03-29T03:58:13.946Z,13.07
2019-03-29T04:00:55.668Z,13.20
2019-03-29T04:03:26.517Z,13.93
2019-03-29T04:05:57.272Z,13.60
2019-03-29T04:08:27.914Z,13.43
2019-03-29T04:10:59.053Z,13.07
2019-03-29T04:13:29.290Z,12.90
2019-03-29T04:15:59.473Z,12.73
2019-03-29T04:18:29.646Z,13.20
2019-03-29T04:20:59.960Z,12.97
2019-03-29T04:23:30.157Z,13.30
2019-03-29T04:26:00.604Z,12.97
2019-03-29T04:28:30.780Z,12.70
2019-03-29T04:31:01.347Z,13.10
2019-03-29T04:33:31.787Z,13.30
2019-03-29T04:36:02.381Z,14.00
2019-03-29T04:38:32.715Z,13.33
2019-03-29T04:41:03.063Z,13.80
2019-03-29T04:43:33.239Z,13.57
2019-03-29T04:46:03.810Z,13.87
2019-03-29T04:48:35.053Z,13.47
2019-03-29T04:51:05.232Z,14.57
2019-03-29T04:53:35.401Z,13.10
2019-03-29T04:56:06.136Z,13.77
2019-03-29T04:58:36.380Z,13.47
2019-03-29T05:01:07.335Z,14.03
2019-03-29T05:03:37.499Z,14.23
2019-03-29T05:06:07.932Z,14.70
2019-03-29T05:08:38.096Z,15.53
2019-03-29T05:11:09.217Z,15.37
2019-03-29T05:13:39.399Z,15.93
2019-03-29T05:16:09.574Z,16.40
2019-03-29T05:18:39.793Z,18.10
2019-03-29T05:21:10.224Z,18.40
2019-03-29T05:23:40.394Z,18.53
2019-03-29T05:26:10.569Z,18.63
2019-03-29T05:28:40.742Z,18.27
2019-03-29T05:31:10.914Z,17.70
2019-03-29T05:33:41.086Z,17.40
2019-03-29T05:36:12.041Z,17.60
2019-03-29T05:38:42.467Z,17.43
2019-03-29T05:41:12.643Z,17.97
2019-03-29T05:43:42.895Z,16.77
2019-03-29T05:46:14.369Z,17.03
2019-03-29T05:48:44.545Z,17.13
2019-03-29T05:51:14.852Z,16.23
2019-03-29T05:53:45.027Z,16.60
2019-03-29T05:56:16.534Z,16.70
2019-03-29T05:58:46.720Z,16.70
2019-03-29T06:01:16.881Z,15.63
2019-03-29T06:03:47.068Z,14.80
2019-03-29T06:06:17.495Z,15.43
2019-03-29T06:08:48.545Z,15.20
2019-03-29T06:11:19.276Z,14.87
2019-03-29T06:13:50.018Z,14.30
2019-03-29T06:16:20.443Z,14.33
2019-03-29T06:18:50.618Z,18.83
2019-03-29T06:21:21.563Z,16.03
2019-03-29T06:23:51.736Z,14.90
2019-03-29T06:26:22.529Z,14.40
2019-03-29T06:28:53.002Z,14.27
2019-03-29T06:31:23.953Z,15.00
2019-03-29T06:33:54.142Z,13.97
2019-03-29T06:36:26.923Z,13.33
2019-03-29T06:38:57.662Z,13.70
2019-03-29T06:41:27.834Z,12.60
2019-03-29T06:43:58.063Z,13.43
2019-03-29T06:46:28.267Z,13.37
2019-03-29T06:48:58.683Z,13.57
2019-03-29T06:51:28.928Z,14.43
2019-03-29T06:53:59.335Z,13.33
2019-03-29T06:56:29.615Z,13.70
2019-03-29T06:58:59.798Z,13.93
2019-03-29T07:01:30.024Z,14.33
2019-03-29T07:04:00.580Z,13.40
2019-03-29T07:06:30.797Z,14.50
2019-03-29T07:09:01.044Z,14.03
2019-03-29T07:11:33.120Z,13.60
2019-03-29T07:14:03.401Z,15.13
2019-03-29T07:16:33.572Z,14.67
2019-03-29T07:19:05.072Z,14.67
2019-03-29T07:21:35.556Z,14.40
2019-03-29T07:24:05.772Z,13.67
2019-03-29T07:26:36.212Z,15.30
2019-03-29T07:29:06.770Z,14.90
2019-03-29T07:31:36.942Z,14.03
2019-03-29T07:34:07.210Z,13.97
2019-03-29T07:36:37.402Z,14.67
2019-03-29T07:39:07.736Z,15.47
2019-03-29T07:41:37.910Z,15.70
2019-03-29T07:44:09.101Z,15.50
2019-03-29T07:46:39.343Z,16.83
2019-03-29T07:49:09.514Z,17.33
2019-03-29T07:51:39.692Z,17.63
2019-03-29T07:54:10.027Z,17.63
2019-03-29T07:56:40.208Z,18.63
2019-03-29T07:59:10.673Z,18.17
2019-03-29T08:01:40.931Z,17.30
2019-03-29T08:04:11.399Z,19.40
2019-03-29T08:06:41.624Z,18.63
2019-03-29T08:09:22.137Z,18.80
2019-03-29T08:11:46.585Z,19.07
2019-03-29T08:14:15.615Z,19.60
2019-03-29T08:16:45.812Z,19.73
2019-03-29T08:19:16.119Z,19.37
2019-03-29T08:21:46.779Z,19.23
2019-03-29T08:24:17.023Z,20.60
2019-03-29T08:26:48.059Z,20.57
2019-03-29T08:29:18.247Z,20.93
2019-03-29T08:31:48.517Z,19.23
2019-03-29T08:34:18.679Z,19.70
2019-03-29T08:36:48.871Z,19.53
2019-03-29T08:39:27.732Z,19.23
2019-03-29T08:42:00.026Z,19.23
2019-03-29T08:44:23.085Z,19.63
2019-03-29T08:46:53.277Z,20.07
2019-03-29T08:49:23.447Z,19.33
2019-03-29T08:51:53.632Z,18.40
2019-03-29T08:54:24.085Z,20.50
2019-03-29T08:56:54.507Z,18.57
2019-03-29T08:59:24.915Z,17.83
2019-03-29T09:01:55.104Z,17.60
2019-03-29T09:04:26.194Z,17.93
2019-03-29T09:06:56.436Z,16.87
2019-03-29T09:09:26.674Z,17.60
2019-03-29T09:11:56.859Z,17.23
2019-03-29T09:14:27.110Z,17.70
2019-03-29T09:16:57.282Z,17.10
2019-03-29T09:19:28.751Z,16.70
2019-03-29T09:21:58.935Z,17.07
2019-03-29T09:24:29.131Z,16.57
2019-03-29T09:26:59.309Z,16.77
2019-03-29T09:29:30.447Z,17.07
2019-03-29T09:32:00.634Z,16.23
2019-03-29T09:34:30.873Z,16.87
2019-03-29T09:37:01.150Z,15.80
2019-03-29T09:39:31.330Z,15.53
2019-03-29T09:42:01.820Z,16.47
2019-03-29T09:44:32.260Z,16.20
2019-03-29T09:47:02.556Z,16.73
2019-03-29T09:49:33.025Z,16.40
2019-03-29T09:52:03.299Z,17.73
2019-03-29T09:54:33.542Z,16.33
2019-03-29T09:57:03.882Z,17.73
2019-03-29T09:59:34.167Z,17.30
2019-03-29T10:02:04.455Z,17.43
2019-03-29T10:04:34.890Z,18.43
2019-03-29T10:07:05.142Z,18.07
2019-03-29T10:09:35.327Z,17.53
2019-03-29T10:12:05.643Z,19.20
2019-03-29T10:14:35.811Z,19.53
2019-03-29T10:17:05.974Z,19.30
2019-03-29T10:19:36.471Z,19.13
2019-03-29T10:22:06.729Z,18.87
2019-03-29T10:24:36.944Z,19.67
2019-03-29T10:27:07.370Z,18.57
2019-03-29T10:29:38.607Z,19.37
2019-03-29T10:32:09.533Z,20.37
2019-03-29T10:34:39.952Z,20.53
2019-03-29T10:37:10.211Z,20.00
2019-03-29T10:39:40.689Z,20.63
2019-03-29T10:42:10.856Z,20.53
2019-03-29T10:44:41.112Z,19.60
2019-03-29T10:47:11.384Z,20.50
2019-03-29T10:49:41.614Z,20.17
2019-03-29T10:52:11.952Z,19.83
2019-03-29T10:54:42.130Z,20.43
2019-03-29T10:57:12.641Z,21.77
2019-03-29T10:59:42.944Z,21.10
2019-03-29T11:02:13.139Z,20.37
2019-03-29T11:04:43.383Z,21.17
2019-03-29T11:07:13.576Z,22.90
2019-03-29T11:09:43.780Z,21.40
2019-03-29T11:12:14.322Z,22.40
2019-03-29T11:14:44.750Z,22.10
2019-03-29T11:17:15.239Z,23.40
2019-03-29T11:19:45.750Z,22.37
2019-03-29T11:22:16.042Z,22.20
2019-03-29T11:24:46.300Z,22.97
2019-03-29T11:27:16.557Z,22.87
2019-03-29T11:29:46.731Z,22.73
2019-03-29T11:32:17.122Z,22.33
2019-03-29T11:34:47.299Z,23.30
2019-03-29T11:37:17.523Z,24.53
2019-03-29T11:39:47.737Z,24.60
2019-03-29T11:42:18.074Z,25.30
2019-03-29T11:44:48.307Z,25.30
2019-03-29T11:47:18.735Z,25.17
2019-03-29T11:49:52.848Z,25.40
2019-03-29T11:52:21.018Z,26.60
2019-03-29T11:54:51.195Z,26.40
2019-03-29T11:57:21.455Z,26.67
2019-03-29T11:59:51.694Z,26.10
2019-03-29T12:02:31.184Z,24.80
2019-03-29T12:04:54.404Z,27.37
2019-03-29T12:07:25.242Z,24.70
2019-03-29T12:09:56.071Z,27.80
2019-03-29T12:12:27.702Z,27.30
2019-03-29T12:14:58.135Z,26.47
2019-03-29T12:17:28.444Z,27.40
2019-03-29T12:19:58.793Z,26.13
2019-03-29T12:22:29.399Z,26.07
2019-03-29T12:25:00.355Z,27.63
2019-03-29T12:27:30.692Z,27.80
2019-03-29T12:30:01.139Z,29.60
2019-03-29T12:32:31.655Z,27.80
2019-03-29T12:35:01.833Z,29.23
2019-03-29T12:37:31.998Z,28.07
2019-03-29T12:40:02.174Z,24.37
2019-03-29T12:42:32.349Z,27.60
2019-03-29T12:45:02.858Z,27.40
2019-03-29T12:47:33.283Z,26.73
2019-03-29T12:50:03.533Z,26.80
2019-03-29T12:52:33.854Z,27.00
2019-03-29T12:55:04.138Z,26.23
2019-03-29T12:57:34.368Z,25.77
2019-03-29T13:00:05.234Z,27.57
2019-03-29T13:02:35.815Z,26.07
2019-03-29T13:05:06.762Z,27.57
2019-03-29T13:07:37.240Z,26.80
2019-03-29T13:10:07.958Z,27.87
2019-03-29T13:12:39.127Z,26.83
2019-03-29T13:15:09.774Z,25.83
2019-03-29T13:17:40.687Z,26.33
2019-03-29T13:20:11.327Z,23.73
2019-03-29T13:22:41.722Z,25.90
2019-03-29T13:25:13.458Z,27.03
2019-03-29T13:27:43.930Z,26.67
2019-03-29T13:30:17.176Z,24.03
2019-03-29T13:32:46.431Z,24.53
2019-03-29T13:35:17.159Z,24.70
2019-03-29T13:37:47.382Z,25.30
2019-03-29T13:40:21.048Z,24.33
2019-03-29T13:42:50.205Z,25.43
2019-03-29T13:45:20.902Z,27.50
2019-03-29T13:47:51.071Z,27.07
2019-03-29T13:50:21.254Z,28.03
2019-03-29T13:52:51.494Z,28.20
2019-03-29T13:55:21.920Z,27.17
2019-03-29T13:57:52.905Z,27.13
2019-03-29T14:00:23.090Z,27.77
2019-03-29T14:02:53.316Z,26.30
2019-03-29T14:05:23.597Z,25.07
2019-03-29T14:07:53.875Z,25.53
2019-03-29T14:10:24.220Z,25.07
2019-03-29T14:12:54.507Z,25.10
2019-03-29T14:15:25.142Z,24.40
2019-03-29T14:17:55.555Z,23.57
2019-03-29T14:20:33.789Z,22.67
2019-03-29T14:23:04.929Z,25.40
2019-03-29T14:25:35.166Z,25.57
2019-03-29T14:28:05.536Z,24.73
2019-03-29T14:30:36.079Z,26.03
2019-03-29T14:33:06.263Z,25.07
2019-03-29T14:35:36.748Z,24.47
2019-03-29T14:38:07.193Z,25.13
2019-03-29T14:40:37.895Z,26.20
2019-03-29T14:43:08.083Z,24.40
2019-03-29T14:45:38.288Z,25.37
2019-03-29T14:48:08.556Z,24.40
2019-03-29T14:50:39.560Z,26.17
2019-03-29T14:53:09.730Z,25.40
2019-03-29T14:55:39.912Z,26.73
2019-03-29T14:58:10.098Z,26.77
2019-03-29T15:00:42.755Z,26.80
2019-03-29T15:03:13.718Z,26.60
2019-03-29T15:05:43.958Z,26.90
2019-03-29T15:08:14.440Z,26.17
2019-03-29T15:10:46.020Z,27.87
2019-03-29T15:13:16.586Z,26.93
2019-03-29T15:15:47.770Z,27.70
2019-03-29T15:18:18.098Z,27.67
2019-03-29T15:20:53.737Z,27.03
2019-03-29T15:23:20.444Z,27.40
2019-03-29T15:25:50.606Z,25.90
2019-03-29T15:28:20.866Z,26.40
2019-03-29T15:30:52.518Z,25.73
2019-03-29T15:33:22.899Z,25.73
2019-03-29T15:35:53.101Z,25.77
2019-03-29T15:38:23.351Z,25.63
2019-03-29T15:40:53.510Z,27.77
2019-03-29T15:43:23.692Z,28.40
2019-03-29T15:45:54.151Z,28.17
2019-03-29T15:48:24.339Z,27.93
2019-03-29T15:50:54.853Z,28.53
2019-03-29T15:53:25.395Z,26.70
2019-03-29T15:55:55.573Z,27.87
2019-03-29T15:58:25.811Z,27.67
2019-03-29T16:00:56.314Z,25.93
2019-03-29T16:03:26.568Z,25.50
2019-03-29T16:05:57.252Z,24.97
2019-03-29T16:08:27.536Z,25.83
2019-03-29T16:10:57.717Z,26.00
2019-03-29T16:13:28.032Z,25.27
2019-03-29T16:15:58.311Z,24.57
2019-03-29T16:18:29.259Z,24.00
2019-03-29T16:20:59.680Z,24.50
2019-03-29T16:23:29.906Z,24.23
2019-03-29T16:26:00.379Z,24.37
2019-03-29T16:28:30.776Z,24.47
2019-03-29T16:31:01.539Z,23.97
2019-03-29T16:33:32.647Z,24.13
2019-03-29T16:36:03.122Z,24.33
2019-03-29T16:38:33.352Z,25.40
2019-03-29T16:41:03.720Z,26.43
2019-03-29T16:43:33.974Z,24.37
2019-03-29T16:46:04.397Z,24.40
2019-03-29T16:48:34.688Z,24.43
2019-03-29T16:51:05.354Z,25.20
2019-03-29T16:53:36.304Z,23.73
2019-03-29T16:56:07.079Z,24.80
2019-03-29T16:58:37.291Z,25.00
2019-03-29T17:01:07.839Z,24.20
2019-03-29T17:03:38.089Z,24.63
2019-03-29T17:06:08.276Z,24.37
2019-03-29T17:08:38.814Z,25.00
2019-03-29T17:11:09.552Z,23.73
2019-03-29T17:13:41.215Z,24.30
2019-03-29T17:16:11.731Z,24.10
2019-03-29T17:18:42.011Z,25.10
2019-03-29T17:21:12.641Z,27.23
2019-03-29T17:23:43.003Z,26.43
2019-03-29T17:26:13.192Z,25.40
2019-03-29T17:28:43.382Z,28.10
2019-03-29T17:31:14.500Z,27.97
2019-03-29T17:33:44.944Z,28.60
2019-03-29T17:36:15.139Z,26.80
2019-03-29T17:38:45.579Z,27.00
2019-03-29T17:41:15.783Z,26.10
2019-03-29T17:43:46.046Z,26.90
2019-03-29T17:46:17.133Z,26.70
2019-03-29T17:48:47.425Z,26.20
2019-03-29T17:51:17.928Z,26.03
2019-03-29T17:53:48.304Z,27.20
2019-03-29T17:56:18.644Z,25.33
2019-03-29T17:58:48.803Z,25.93
2019-03-29T18:01:18.979Z,26.43
2019-03-29T18:03:49.464Z,30.07
2019-03-29T18:06:19.694Z,27.27
2019-03-29T18:08:50.044Z,28.57
2019-03-29T18:11:20.522Z,26.50
2019-03-29T18:13:50.687Z,28.77
2019-03-29T18:16:30.635Z,25.67
2019-03-29T18:18:52.830Z,25.17
2019-03-29T18:21:23.003Z,25.03
2019-03-29T18:23:53.830Z,26.27
2019-03-29T18:26:24.332Z,25.17
2019-03-29T18:28:54.815Z,23.47
2019-03-29T18:31:25.003Z,26.33
2019-03-29T18:33:55.260Z,27.50
2019-03-29T18:36:25.735Z,27.00
2019-03-29T18:38:55.902Z,23.03
2019-03-29T18:41:26.159Z,23.67
2019-03-29T18:43:56.338Z,23.87
2019-03-29T18:46:27.043Z,23.80
2019-03-29T18:48:57.487Z,25.33
2019-03-29T18:51:27.662Z,26.07
2019-03-29T18:53:58.397Z,28.33
2019-03-29T18:56:28.958Z,27.00
2019-03-29T18:58:59.468Z,26.67
2019-03-29T19:01:29.640Z,26.43
2019-03-29T19:04:00.201Z,27.40
2019-03-29T19:06:31.772Z,23.40
2019-03-29T19:09:02.020Z,21.97
2019-03-29T19:11:33.818Z,21.93
2019-03-29T19:14:04.206Z,23.23
2019-03-29T19:16:34.414Z,22.80
2019-03-29T19:19:10.239Z,22.93
2019-03-29T19:21:36.487Z,22.27
2019-03-29T19:24:06.694Z,23.30
2019-03-29T19:26:37.935Z,22.37
2019-03-29T19:29:08.205Z,22.33
2019-03-29T19:31:38.528Z,24.13
2019-03-29T19:34:08.736Z,24.73
2019-03-29T19:36:38.915Z,25.93
2019-03-29T19:39:10.165Z,25.83
2019-03-29T19:41:40.901Z,26.00
2019-03-29T19:44:13.690Z,25.60
2019-03-29T19:46:43.209Z,27.60
2019-03-29T19:49:13.739Z,28.17
2019-03-29T19:51:44.168Z,27.87
2019-03-29T19:54:14.443Z,26.43
2019-03-29T19:56:44.854Z,26.50
2019-03-29T19:59:15.123Z,27.00
2019-03-29T20:01:45.695Z,24.47
2019-03-29T20:04:15.952Z,24.60
2019-03-29T20:06:46.140Z,25.10
2019-03-29T20:09:16.310Z,24.13
2019-03-29T20:11:46.626Z,23.93
2019-03-29T20:14:16.812Z,22.70
2019-03-29T20:16:47.400Z,22.90
2019-03-29T20:19:20.043Z,23.60
2019-03-29T20:21:50.558Z,26.77
2019-03-29T20:24:21.039Z,27.07
2019-03-29T20:26:51.202Z,28.13
2019-03-29T20:29:21.927Z,27.17
2019-03-29T20:31:53.102Z,26.73
2019-03-29T20:34:24.304Z,27.27
2019-03-29T20:36:54.471Z,22.33
2019-03-29T20:39:24.891Z,23.83
2019-03-29T20:41:55.128Z,22.97
2019-03-29T20:44:25.350Z,25.50
2019-03-29T20:46:55.545Z,25.37
2019-03-29T20:49:26.018Z,25.60
2019-03-29T20:51:56.354Z,25.20
2019-03-29T20:54:26.524Z,25.67
2019-03-29T20:56:56.993Z,26.50
2019-03-29T20:59:27.156Z,24.00
2019-03-29T21:01:57.327Z,23.80
2019-03-29T21:04:28.870Z,24.37
2019-03-29T21:06:59.043Z,24.07
2019-03-29T21:09:29.207Z,26.33
2019-03-29T21:11:59.479Z,24.80
2019-03-29T21:14:29.972Z,22.83
2019-03-29T21:17:00.618Z,22.17
2019-03-29T21:19:30.795Z,22.67
2019-03-29T21:22:01.054Z,22.40
2019-03-29T21:24:31.243Z,24.43
2019-03-29T21:27:01.436Z,24.83
2019-03-29T21:29:31.615Z,25.00
2019-03-29T21:32:01.799Z,25.10
2019-03-29T21:34:32.007Z,26.37
2019-03-29T21:37:02.225Z,24.97
2019-03-29T21:39:32.386Z,27.67
2019-03-29T21:42:02.684Z,28.00
2019-03-29T21:44:32.899Z,34.97
2019-03-29T21:47:03.090Z,30.93
2019-03-29T21:49:33.247Z,29.80
2019-03-29T21:52:03.530Z,27.60
2019-03-29T21:54:33.691Z,27.30
2019-03-29T21:57:03.959Z,30.07
2019-03-29T21:59:34.390Z,30.40
2019-03-29T22:02:04.563Z,29.73
2019-03-29T22:04:34.727Z,30.50
2019-03-29T22:07:04.987Z,29.30
2019-03-29T22:09:37.126Z,28.27
2019-03-29T22:12:07.292Z,27.17
2019-03-29T22:14:37.506Z,25.73
2019-03-29T22:17:07.956Z,27.23
2019-03-29T22:19:38.296Z,26.20
2019-03-29T22:22:08.466Z,25.63
2019-03-29T22:24:38.909Z,24.73
2019-03-29T22:27:09.099Z,19.43
2019-03-29T22:29:39.259Z,19.20
2019-03-29T22:32:09.478Z,20.67
2019-03-29T22:34:39.730Z,25.87
2019-03-29T22:37:10.217Z,27.27
2019-03-29T22:39:40.380Z,27.93
2019-03-29T22:42:10.564Z,30.50
2019-03-29T22:44:40.718Z,29.73
2019-03-29T22:47:11.426Z,32.87
2019-03-29T22:49:41.582Z,33.03
2019-03-29T22:52:11.808Z,32.33
2019-03-29T22:54:42.024Z,31.20
2019-03-29T22:57:12.188Z,30.97
2019-03-29T22:59:42.431Z,27.90
2019-03-29T23:02:12.961Z,27.13
2019-03-29T23:04:43.512Z,26.00
2019-03-29T23:07:13.741Z,27.97
2019-03-29T23:09:43.983Z,29.37
2019-03-29T23:12:14.170Z,29.97
2019-03-29T23:14:44.336Z,26.63
2019-03-29T23:17:14.507Z,23.57
2019-03-29T23:19:44.754Z,23.43
2019-03-29T23:22:15.978Z,23.77
2019-03-29T23:24:46.414Z,23.50
2019-03-29T23:27:16.661Z,22.87
2019-03-29T23:29:47.256Z,20.97
2019-03-29T23:32:17.403Z,22.80
2019-03-29T23:34:47.891Z,23.80
2019-03-29T23:37:18.149Z,23.40
2019-03-29T23:39:48.382Z,23.03
2019-03-29T23:42:18.598Z,23.40
2019-03-29T23:44:48.842Z,24.20
2019-03-29T23:47:19.079Z,23.40
2019-03-29T23:49:49.383Z,23.23
2019-03-29T23:52:19.666Z,22.37
2019-03-29T23:54:49.920Z,23.33
2019-03-29T23:57:20.151Z,24.23
2019-03-29T23:59:50.603Z,25.90
